Time;durP1;ratioP1;P1;durP2;ratioP2;P2;SDS_P1;SDS_P2;PMS_P1;PMS_P2;Temp;Humidity;BMP_temperature;BMP_pressure;BME280_temperature;BME280_humidity;BME280_pressure;Samples;Min_cycle;Max_cycle;Signal;HPM_P1;HPM_P2
2024/01/13 00:00:01;;;;;;;34.88;22.00;;;;;;;28.46;62.55;100966.00;5042400;28;65040;-41
2024/01/13 00:02:32;;;;;;;33.60;21.53;;;;;;;28.61;63.39;100994.69;5038564;28;69071;-38
2024/01/13 00:05:03;;;;;;;31.48;21.08;;;;;;;28.55;62.93;100987.41;5041858;28;66242;-37
2024/01/13 00:07:33;;;;;;;32.20;21.17;;;;;;;28.36;64.44;100973.63;5041316;28;70563;-37
2024/01/13 00:10:04;;;;;;;30.67;21.17;;;;;;;28.65;64.71;101017.56;5038916;28;65898;-37
2024/01/13 00:12:35;;;;;;;32.22;22.48;;;;;;;28.68;63.46;101015.28;5039415;28;69324;-37
2024/01/13 00:15:06;;;;;;;36.85;24.48;;;;;;;28.66;63.64;101020.03;5028412;28;66710;-37
2024/01/13 00:17:36;;;;;;;32.15;22.17;;;;;;;28.53;64.54;101009.22;5040817;28;70623;-37
2024/01/13 00:20:08;;;;;;;35.72;22.90;;;;;;;28.69;65.24;101045.81;5040710;28;66409;-38
2024/01/13 00:22:47;;;;;;;30.95;22.83;;;;;;;28.67;65.17;101037.09;5041118;28;70513;-37
2024/01/13 00:25:17;;;;;;;34.17;22.88;;;;;;;28.62;65.52;101026.91;5043315;28;66784;-39
2024/01/13 00:27:48;;;;;;;32.90;21.45;;;;;;;28.71;66.05;101043.75;5059576;28;70238;-37
2024/01/13 00:30:18;;;;;;;29.23;20.02;;;;;;;28.71;66.33;101039.19;5058401;28;65348;-40
2024/01/13 00:32:49;;;;;;;48.13;28.73;;;;;;;28.78;67.34;101050.00;5060521;28;70366;-40
2024/01/13 00:35:20;;;;;;;57.88;33.05;;;;;;;28.73;69.07;101047.91;5060645;28;66532;-41
2024/01/13 00:37:50;;;;;;;56.88;35.00;;;;;;;28.83;70.02;101069.13;5042563;28;70153;-40
2024/01/13 00:40:21;;;;;;;66.03;35.30;;;;;;;28.87;70.23;101073.09;5038170;28;66913;-39
2024/01/13 00:42:51;;;;;;;54.25;36.05;;;;;;;28.92;69.03;101077.91;5038543;28;68774;-39
2024/01/13 00:45:22;;;;;;;62.65;34.90;;;;;;;28.96;68.25;101079.97;5055129;28;66446;-39
2024/01/13 00:47:52;;;;;;;61.75;34.55;;;;;;;29.01;67.78;101081.25;5038834;28;69604;-40
2024/01/13 00:50:23;;;;;;;55.20;34.80;;;;;;;29.00;68.26;101093.06;5054411;28;66303;-39
2024/01/13 00:52:53;;;;;;;61.40;33.78;;;;;;;29.02;68.42;101099.94;5048017;28;70184;-39
2024/01/13 00:55:24;;;;;;;59.90;33.10;;;;;;;29.04;68.26;101102.47;5037086;28;65725;-39
2024/01/13 00:57:54;;;;;;;57.47;34.30;;;;;;;29.02;71.93;101104.50;5049709;28;69358;-39
2024/01/13 01:00:25;;;;;;;61.67;35.13;;;;;;;29.09;70.93;101116.22;5042280;28;65534;-41
2024/01/13 01:02:55;;;;;;;61.60;33.45;;;;;;;29.11;70.98;101114.13;5037250;28;69344;-39
2024/01/13 01:05:26;;;;;;;49.78;31.80;;;;;;;29.26;66.27;101119.38;5036855;28;66812;-39
2024/01/13 01:07:56;;;;;;;49.75;31.77;;;;;;;29.24;65.65;101108.75;5045293;28;70525;-39
2024/01/13 01:10:28;;;;;;;45.72;29.80;;;;;;;29.36;65.33;101117.97;5041163;28;66178;-40
2024/01/13 01:12:58;;;;;;;48.72;30.90;;;;;;;29.42;65.89;101115.44;5041106;28;69638;-40
2024/01/13 01:15:28;;;;;;;50.20;31.25;;;;;;;29.46;65.25;101112.16;5037868;28;66409;-38
2024/01/13 01:17:59;;;;;;;48.47;31.45;;;;;;;29.46;65.01;101116.72;5042416;28;69616;-38
2024/01/13 01:20:30;;;;;;;80.18;37.53;;;;;;;29.52;70.33;101115.88;5041323;28;66350;-38
2024/01/13 01:23:00;;;;;;;68.10;36.88;;;;;;;29.39;70.20;101073.44;5038960;28;70324;-41
2024/01/13 01:25:31;;;;;;;65.43;37.08;;;;;;;29.70;70.18;101121.56;5041626;28;66003;-39
2024/01/13 01:28:01;;;;;;;72.85;37.53;;;;;;;29.65;70.28;101109.72;5039851;28;69578;-40
2024/01/13 01:30:32;;;;;;;63.63;35.67;;;;;;;29.69;70.83;101122.59;5022624;28;65834;-38
2024/01/13 01:33:02;;;;;;;54.00;35.17;;;;;;;29.68;70.56;101115.53;5040224;28;70467;-40
2024/01/13 01:35:33;;;;;;;63.28;35.53;;;;;;;29.70;70.85;101120.72;5048947;28;66066;-38
2024/01/13 01:38:04;;;;;;;56.20;37.08;;;;;;;29.53;71.65;101095.94;5061717;28;70476;-39
2024/01/13 01:40:36;;;;;;;65.15;37.80;;;;;;;29.19;71.19;101049.09;5042503;28;66357;-38
2024/01/13 01:43:07;;;;;;;61.45;38.63;;;;;;;29.69;70.44;101122.59;5041428;28;70084;-39
2024/01/13 01:45:37;;;;;;;67.55;38.63;;;;;;;29.70;71.43;101128.81;5060727;28;66019;-39
2024/01/13 01:48:08;;;;;;;76.35;40.08;;;;;;;29.68;71.24;101123.66;5062952;28;69642;-38
2024/01/13 01:50:49;;;;;;;50.50;34.90;;;;;;;29.63;67.92;101120.72;5048781;28;66593;-39
2024/01/13 01:53:20;;;;;;;53.33;33.65;;;;;;;29.62;67.82;101119.88;5060932;28;70174;-39
2024/01/13 01:55:51;;;;;;;50.80;34.15;;;;;;;29.61;67.87;101125.47;5062422;28;65779;-40
2024/01/13 01:58:22;;;;;;;50.85;34.15;;;;;;;29.58;67.76;101115.06;5072013;28;70203;-39
2024/01/13 02:01:05;;;;;;;51.65;35.47;;;;;;;29.70;67.62;101135.09;5048915;28;66300;-38
2024/01/13 02:03:39;;;;;;;56.42;36.83;;;;;;;29.71;67.67;101142.16;5036461;28;70662;-38
2024/01/13 02:06:10;;;;;;;60.13;35.45;;;;;;;29.71;67.33;101142.16;5048923;28;66246;-38
2024/01/13 02:08:42;;;;;;;64.28;37.28;;;;;;;29.62;67.21;101130.69;5068136;28;70818;-39
2024/01/13 02:11:13;;;;;;;58.80;38.23;;;;;;;29.68;67.30;101134.47;5057077;28;65825;-39
2024/01/13 02:13:47;;;;;;;61.75;38.50;;;;;;;29.35;67.06;101078.44;5051063;28;70121;-38
2024/01/13 02:16:18;;;;;;;58.50;38.85;;;;;;;29.31;67.53;101079.91;5057298;28;66025;-38
2024/01/13 02:18:48;;;;;;;63.47;39.25;;;;;;;29.78;67.75;101148.41;5034565;28;70883;-39
2024/01/13 02:21:19;;;;;;;66.97;40.42;;;;;;;29.80;67.06;101148.19;5061451;28;67075;-38
2024/01/13 02:23:49;;;;;;;65.07;39.10;;;;;;;29.81;67.14;101145.28;5055227;28;70127;-38
2024/01/13 02:26:20;;;;;;;57.28;37.97;;;;;;;29.87;66.89;101156.31;5041736;28;65900;-39
2024/01/13 02:28:52;;;;;;;60.25;38.05;;;;;;;29.88;67.45;101157.97;5040091;28;70078;-39
2024/01/13 02:31:23;;;;;;;63.10;38.65;;;;;;;29.90;67.87;101166.72;5060730;28;66431;-37
2024/01/13 02:33:53;;;;;;;61.55;38.28;;;;;;;29.91;67.19;101162.97;5055493;28;70676;-38
2024/01/13 02:36:25;;;;;;;62.00;38.60;;;;;;;29.87;67.35;101156.31;5050924;28;66574;-39
2024/01/13 02:38:55;;;;;;;78.18;46.25;;;;;;;30.06;69.67;101172.56;5043548;28;70590;-45
2024/01/13 02:41:26;;;;;;;77.72;45.95;;;;;;;30.15;70.38;101169.66;5042485;28;66059;-39
2024/01/13 02:43:56;;;;;;;72.63;43.47;;;;;;;30.11;70.84;101163.81;5041478;28;70017;-38
2024/01/13 02:46:27;;;;;;;82.60;44.47;;;;;;;30.13;70.69;101172.56;5046176;28;66517;-39
2024/01/13 02:48:59;;;;;;;69.43;44.00;;;;;;;30.00;70.85;101154.44;5049118;28;69711;-39
2024/01/13 02:51:29;;;;;;;66.65;41.90;;;;;;;30.08;70.68;101169.63;5047683;28;66294;-39
2024/01/13 02:54:00;;;;;;;61.85;39.80;;;;;;;29.99;71.10;101160.88;5063309;28;70174;-39
2024/01/13 02:56:31;;;;;;;57.58;40.05;;;;;;;30.05;71.08;101170.06;5055161;28;66502;-39
2024/01/13 02:59:02;;;;;;;59.83;38.25;;;;;;;29.99;71.38;101162.78;5051225;28;70210;-39
2024/01/13 03:01:32;;;;;;;65.53;39.33;;;;;;;30.06;71.66;101166.28;5052082;28;66057;-39
2024/01/13 03:04:02;;;;;;;59.20;36.65;;;;;;;30.04;71.23;101157.56;5067325;28;70674;-39
2024/01/13 03:06:33;;;;;;;51.38;35.75;;;;;;;30.01;71.03;101153.41;5067754;28;66110;-39
2024/01/13 03:09:04;;;;;;;56.42;36.17;;;;;;;30.06;71.87;101169.00;5052876;28;70485;-40
2024/01/13 03:11:34;;;;;;;53.45;34.50;;;;;;;29.99;71.14;101150.06;5050209;28;66404;-40
2024/01/13 03:14:05;;;;;;;52.85;34.22;;;;;;;29.74;71.57;101114.69;5055101;28;71475;-39
2024/01/13 03:16:35;;;;;;;53.40;34.05;;;;;;;30.01;71.23;101147.19;5048871;28;66676;-38
2024/01/13 03:19:06;;;;;;;44.47;34.05;;;;;;;30.07;71.26;101149.03;5029864;28;70698;-38
2024/01/13 03:21:37;;;;;;;46.22;33.22;;;;;;;30.02;71.28;101143.41;5065914;28;66835;-39
2024/01/13 03:24:07;;;;;;;46.50;31.98;;;;;;;30.12;72.09;101160.06;5053931;28;69584;-39
2024/01/13 03:26:38;;;;;;;54.15;32.03;;;;;;;30.10;71.52;101154.03;5056158;28;66575;-39
2024/01/13 03:29:09;;;;;;;48.78;31.95;;;;;;;30.13;71.53;101148.19;5061049;28;69711;-39
2024/01/13 03:31:39;;;;;;;44.13;31.02;;;;;;;30.16;71.61;101155.91;5059488;28;66687;-38
2024/01/13 03:34:09;;;;;;;42.80;30.60;;;;;;;30.14;71.37;101143.63;5060877;28;69560;-39
2024/01/13 03:36:40;;;;;;;46.92;30.55;;;;;;;30.18;71.53;101151.13;5060325;28;66798;-39
2024/01/13 03:39:10;;;;;;;46.30;31.58;;;;;;;30.20;71.04;101142.78;5060959;28;69489;-39
2024/01/13 03:41:41;;;;;;;41.90;29.50;;;;;;;30.21;71.39;101141.75;5048660;28;66387;-39
2024/01/13 03:44:12;;;;;;;42.15;29.75;;;;;;;30.23;71.77;101140.53;5032173;28;69203;-39
2024/01/13 03:46:42;;;;;;;39.85;30.15;;;;;;;30.26;71.58;101140.09;5049103;28;67907;-41
2024/01/13 03:49:14;;;;;;;37.77;29.00;;;;;;;30.24;71.51;101139.47;5056896;28;69203;-39
2024/01/13 03:51:44;;;;;;;37.70;26.95;;;;;;;30.26;70.28;101139.28;5049633;28;66066;-40
2024/01/13 03:54:16;;;;;;;32.53;24.73;;;;;;;30.25;69.65;101138.44;5045146;28;69705;-38
2024/01/13 03:56:47;;;;;;;27.80;22.27;;;;;;;30.31;69.93;101133.22;5044682;28;66445;-40
2024/01/13 03:59:18;;;;;;;25.98;23.23;;;;;;;30.13;69.54;101102.22;5048400;28;72011;-38
2024/01/13 04:01:48;;;;;;;27.55;22.48;;;;;;;30.41;69.63;101136.34;5035036;28;65142;-39
2024/01/13 04:04:19;;;;;;;28.80;23.40;;;;;;;30.43;69.47;101128.84;5056692;28;70185;-38
2024/01/13 04:06:49;;;;;;;27.65;24.27;;;;;;;30.44;69.33;101133.19;5039822;28;65699;-38
2024/01/13 04:09:20;;;;;;;28.63;24.98;;;;;;;30.54;69.51;101125.50;5042079;28;70559;-39
2024/01/13 04:11:51;;;;;;;32.50;25.15;;;;;;;30.53;69.28;101118.38;5029775;28;65895;-39
2024/01/13 04:14:21;;;;;;;30.42;26.55;;;;;;;30.50;69.12;101108.00;5041021;28;69731;-39
2024/01/13 04:16:52;;;;;;;36.00;27.60;;;;;;;30.64;69.10;101125.84;5041260;28;65430;-39
2024/01/13 04:19:23;;;;;;;37.17;27.83;;;;;;;30.62;69.40;101111.72;5042441;28;69315;-38
2024/01/13 04:21:54;;;;;;;39.17;29.15;;;;;;;30.71;69.05;101115.84;5041813;28;65668;-38
2024/01/13 04:24:24;;;;;;;37.30;28.90;;;;;;;30.71;69.00;101107.72;5042027;28;70537;-39
2024/01/13 04:26:55;;;;;;;44.70;31.80;;;;;;;30.77;68.91;101102.50;5041747;28;66484;-39
2024/01/13 04:29:26;;;;;;;42.85;32.13;;;;;;;30.78;69.22;101096.03;5044961;28;70434;-39
2024/01/13 04:31:56;;;;;;;44.28;32.42;;;;;;;30.84;69.56;101100.59;5045543;28;64579;-39
2024/01/13 04:34:27;;;;;;;49.15;31.92;;;;;;;30.86;68.81;101096.66;5024461;28;70160;-40
2024/01/13 04:36:58;;;;;;;45.22;32.50;;;;;;;30.88;68.89;101093.72;5041477;28;66771;-39
2024/01/13 04:39:28;;;;;;;52.95;34.17;;;;;;;30.84;68.89;101076.22;5040475;28;70198;-39
2024/01/13 04:41:59;;;;;;;47.80;33.60;;;;;;;30.94;68.89;101087.44;5040804;28;66786;-39
2024/01/13 04:44:30;;;;;;;49.78;34.00;;;;;;;30.96;69.00;101090.78;5055040;28;70037;-39
2024/01/13 04:47:00;;;;;;;44.10;32.45;;;;;;;30.97;68.91;101087.00;5052288;28;66267;-39
2024/01/13 04:49:31;;;;;;;44.25;33.00;;;;;;;30.97;69.17;101081.59;5054460;28;69916;-38
2024/01/13 04:52:01;;;;;;;57.05;36.28;;;;;;;31.02;68.87;101081.78;5041848;28;65773;-38
2024/01/13 04:54:32;;;;;;;48.17;34.90;;;;;;;30.97;68.51;101065.34;5057637;28;69929;-39
2024/01/13 04:57:03;;;;;;;50.38;35.92;;;;;;;31.06;68.65;101074.03;5040000;28;65848;-38
2024/01/13 04:59:34;;;;;;;52.45;36.05;;;;;;;31.04;68.83;101055.31;5036791;28;69794;-39
2024/01/13 05:02:05;;;;;;;47.25;33.72;;;;;;;31.06;68.42;101061.31;5047613;28;65634;-40
2024/01/13 05:04:35;;;;;;;49.40;34.50;;;;;;;31.07;68.48;101049.47;5041403;28;69921;-38
2024/01/13 05:07:09;;;;;;;46.75;35.13;;;;;;;31.03;68.36;101037.38;5038279;28;66936;-39
2024/01/13 05:09:40;;;;;;;52.92;36.25;;;;;;;31.08;68.39;101031.31;5032398;28;69979;-38
2024/01/13 05:12:11;;;;;;;64.47;40.75;;;;;;;31.10;68.88;101037.34;5025804;28;67231;-39
2024/01/13 05:14:41;;;;;;;64.93;40.90;;;;;;;31.05;67.89;101040.69;5037116;28;69938;-40
2024/01/13 05:17:12;;;;;;;58.35;39.13;;;;;;;30.89;66.94;101019.53;5076483;28;66407;-39
2024/01/13 05:19:42;;;;;;;57.13;38.83;;;;;;;30.88;66.09;101029.56;5041333;28;70390;-38
2024/01/13 05:22:13;;;;;;;57.05;37.15;;;;;;;30.82;65.43;101022.31;5044435;28;66270;-40
2024/01/13 05:24:44;;;;;;;46.85;36.03;;;;;;;30.65;64.32;100997.56;5047211;28;70515;-40
2024/01/13 05:27:14;;;;;;;51.05;35.33;;;;;;;30.63;63.90;101002.38;5046300;28;66509;-40
2024/01/13 05:29:45;;;;;;;56.53;35.58;;;;;;;30.61;63.65;101004.44;5048632;28;70442;-38
2024/01/13 05:32:15;;;;;;;49.58;34.78;;;;;;;30.60;62.69;101004.69;5053953;28;66077;-40
2024/01/13 05:34:46;;;;;;;48.35;32.72;;;;;;;30.55;62.13;100996.38;5063834;28;70426;-39
2024/01/13 05:37:16;;;;;;;48.30;32.03;;;;;;;30.44;61.42;100968.09;5047110;28;66654;-40
2024/01/13 05:39:47;;;;;;;51.08;32.25;;;;;;;30.46;61.26;100977.66;5044287;28;69333;-39
2024/01/13 05:42:18;;;;;;;45.85;29.88;;;;;;;30.38;60.21;100963.56;5039597;28;67233;-38
2024/01/13 05:44:49;;;;;;;43.28;30.45;;;;;;;30.32;60.14;100959.00;5046172;28;71686;-39
2024/01/13 05:47:19;;;;;;;42.35;29.48;;;;;;;30.35;60.03;100959.41;5042876;28;66047;-38
2024/01/13 05:49:53;;;;;;;46.10;28.50;;;;;;;30.37;59.45;100953.75;5051578;28;69862;-38
2024/01/13 05:52:24;;;;;;;41.53;28.92;;;;;;;30.31;59.17;100951.91;5061855;28;66861;-40
2024/01/13 05:54:54;;;;;;;40.40;28.10;;;;;;;30.36;60.03;100949.41;5049012;28;69647;-39
2024/01/13 05:57:25;;;;;;;40.58;28.77;;;;;;;30.32;58.47;100943.59;5031252;28;67005;-39
2024/01/13 05:59:55;;;;;;;39.95;28.80;;;;;;;30.28;58.11;100937.78;5046209;28;70414;-39
2024/01/13 06:02:26;;;;;;;36.05;28.23;;;;;;;30.30;57.79;100934.03;5062961;28;65998;-38
2024/01/13 06:04:56;;;;;;;37.17;25.95;;;;;;;30.28;57.83;100932.38;5043556;28;70079;-38
2024/01/13 06:07:27;;;;;;;30.17;26.13;;;;;;;30.27;57.15;100924.47;5043987;28;66026;-37
2024/01/13 06:10:07;;;;;;;32.70;25.27;;;;;;;30.22;56.99;100916.97;5032448;28;70830;-39
2024/01/13 06:12:38;;;;;;;30.58;25.10;;;;;;;30.23;56.68;100913.25;5043929;28;65468;-39
2024/01/13 06:15:09;;;;;;;38.90;25.02;;;;;;;30.13;57.25;100888.47;5042544;28;70291;-38
2024/01/13 06:17:40;;;;;;;33.60;25.10;;;;;;;30.20;56.82;100897.41;5033898;28;66600;-40
2024/01/13 06:20:10;;;;;;;36.25;25.65;;;;;;;30.22;56.80;100898.03;5038548;28;70207;-39
2024/01/13 06:22:41;;;;;;;28.73;24.02;;;;;;;30.03;56.01;100863.75;5041383;28;66634;-39
2024/01/13 06:25:11;;;;;;;34.22;25.80;;;;;;;30.19;56.06;100890.31;5053796;28;69738;-39
2024/01/13 06:27:42;;;;;;;37.50;25.52;;;;;;;30.17;55.93;100881.63;5058771;28;66624;-38
2024/01/13 06:30:12;;;;;;;32.35;23.75;;;;;;;30.22;58.02;100883.69;5039907;28;69889;-39
2024/01/13 06:32:43;;;;;;;30.27;22.20;;;;;;;30.14;58.77;100863.06;5030717;28;66232;-39
2024/01/13 06:35:14;;;;;;;26.60;20.30;;;;;;;30.26;59.53;100872.22;5046331;28;70838;-38
2024/01/13 06:37:45;;;;;;;24.48;20.45;;;;;;;30.36;60.12;100871.72;5052762;28;66577;-40
2024/01/13 06:40:15;;;;;;;22.90;20.50;;;;;;;30.40;59.64;100864.84;5031960;28;69429;-39
2024/01/13 06:42:46;;;;;;;25.98;21.02;;;;;;;30.55;59.55;100869.97;5056169;28;65309;-39
2024/01/13 06:45:17;;;;;;;24.52;20.50;;;;;;;30.50;60.05;100853.53;5042099;28;70339;-38
2024/01/13 06:47:48;;;;;;;22.95;20.65;;;;;;;30.67;60.29;100857.41;5051206;28;66325;-40
2024/01/13 06:50:19;;;;;;;;;;;;;;;30.56;58.04;100857.25;5063115;28;70065;-40
2024/01/13 06:52:50;;;;;;;24.33;19.30;;;;;;;30.73;60.58;100856.50;5038667;28;65673;-40
2024/01/13 06:55:24;;;;;;;22.55;20.13;;;;;;;30.84;60.07;100849.59;5047390;28;70111;-39
2024/01/13 06:57:55;;;;;;;30.70;20.15;;;;;;;30.82;60.50;100838.13;5040781;28;66992;-39
2024/01/13 07:00:26;;;;;;;21.48;19.25;;;;;;;30.93;60.27;100840.13;5034106;28;70622;-39
2024/01/13 07:02:56;;;;;;;23.60;21.13;;;;;;;31.00;60.63;100841.94;5047665;28;66545;-39
2024/01/13 07:05:27;;;;;;;22.48;20.10;;;;;;;31.03;59.75;100842.31;5046834;28;70028;-39
2024/01/13 07:07:59;;;;;;;24.15;20.02;;;;;;;31.07;60.39;100843.53;5074456;28;66400;-38
2024/01/13 07:10:31;;;;;;;21.73;19.50;;;;;;;31.12;60.39;100846.41;5060957;28;70406;-38
2024/01/13 07:13:01;;;;;;;21.90;19.60;;;;;;;31.12;60.61;100835.59;5073132;28;66522;-38
2024/01/13 07:15:32;;;;;;;28.27;20.92;;;;;;;31.19;60.36;100827.38;5060366;28;70056;-41
2024/01/13 07:18:02;;;;;;;22.67;20.17;;;;;;;31.25;60.34;100828.38;5069845;28;66291;-39
2024/01/13 07:20:33;;;;;;;24.52;20.23;;;;;;;31.31;59.92;100822.03;5051646;28;70222;-39
2024/01/13 07:23:04;;;;;;;22.35;20.25;;;;;;;31.31;60.55;100811.19;5048772;28;67422;-38
2024/01/13 07:25:35;;;;;;;29.42;24.90;;;;;;;31.41;60.84;100816.97;5041130;28;70303;-38
2024/01/13 07:28:05;;;;;;;50.07;34.90;;;;;;;31.34;61.79;100802.63;5044470;28;65499;-39
2024/01/13 07:30:36;;;;;;;71.22;40.28;;;;;;;31.49;62.81;100819.38;5059299;28;70603;-38
2024/01/13 07:33:07;;;;;;;88.30;48.25;;;;;;;31.56;63.27;100820.13;5028086;28;64649;-37
2024/01/13 07:35:37;;;;;;;85.40;45.92;;;;;;;31.60;63.17;100815.91;5039270;28;70641;-38
2024/01/13 07:38:08;;;;;;;78.25;42.47;;;;;;;31.54;63.31;100795.13;5052332;28;66623;-37
2024/01/13 07:40:38;;;;;;;71.15;41.22;;;;;;;31.66;63.16;100806.03;5039499;28;69886;-39
2024/01/13 07:43:10;;;;;;;72.93;41.78;;;;;;;31.70;63.57;100815.34;5051601;28;65808;-39
2024/01/13 07:45:41;;;;;;;82.68;42.58;;;;;;;31.70;63.00;100803.69;5034958;28;69571;-41
2024/01/13 07:48:12;;;;;;;68.93;40.60;;;;;;;31.73;63.49;100817.66;5058762;28;66777;-38
2024/01/13 07:50:42;;;;;;;70.90;39.67;;;;;;;31.69;63.60;100792.03;5073619;28;70280;-40
2024/01/13 07:53:13;;;;;;;62.53;38.35;;;;;;;31.68;64.04;100784.94;5059108;28;66286;-40
2024/01/13 07:55:43;;;;;;;60.17;38.97;;;;;;;31.81;64.15;100800.22;5046782;28;69461;-40
2024/01/13 07:58:14;;;;;;;58.83;38.85;;;;;;;31.88;64.82;100811.81;5044339;28;66718;-42
2024/01/13 08:00:45;;;;;;;73.00;42.60;;;;;;;31.91;64.61;100805.97;5048765;28;69429;-42
2024/01/13 08:03:15;;;;;;;72.43;41.45;;;;;;;31.98;64.58;100814.00;5042295;28;66470;-40
2024/01/13 08:05:46;;;;;;;58.85;39.38;;;;;;;31.99;64.92;100808.34;5038107;28;70004;-40
2024/01/13 08:08:17;;;;;;;59.97;38.60;;;;;;;32.02;66.29;100802.47;5025662;28;66092;-42
2024/01/13 08:10:47;;;;;;;63.40;42.78;;;;;;;31.97;67.44;100809.63;5034286;28;70169;-40
2024/01/13 08:13:20;;;;;;;66.72;40.83;;;;;;;31.90;65.60;100807.00;5040467;28;66963;-38
2024/01/13 08:15:50;;;;;;;64.95;38.05;;;;;;;31.76;63.46;100781.94;5040474;28;69452;-41
2024/01/13 08:18:24;;;;;;;56.55;36.85;;;;;;;31.87;63.01;100804.72;5038749;28;66031;-43
2024/01/13 08:20:55;;;;;;;70.72;40.83;;;;;;;31.78;64.89;100795.25;5049377;28;70600;-40
2024/01/13 08:23:26;;;;;;;66.38;40.00;;;;;;;31.82;65.54;100801.88;5050325;28;65718;-38
2024/01/13 08:25:57;;;;;;;63.53;39.25;;;;;;;31.76;63.85;100794.63;5034899;28;69903;-38
2024/01/13 08:28:28;;;;;;;68.35;39.15;;;;;;;31.58;63.77;100792.78;5037783;28;66677;-39
2024/01/13 08:30:59;;;;;;;62.15;38.47;;;;;;;31.55;62.08;100807.63;5037996;28;70192;-39
2024/01/13 08:33:30;;;;;;;62.38;38.22;;;;;;;31.53;61.86;100808.91;5045414;28;65563;-39
2024/01/13 08:36:00;;;;;;;65.93;39.10;;;;;;;31.41;60.79;100806.13;5046259;28;69373;-39
2024/01/13 08:38:31;;;;;;;70.22;40.75;;;;;;;31.34;60.91;100805.31;5073847;28;66141;-39
2024/01/13 08:41:02;;;;;;;72.30;43.03;;;;;;;31.28;61.42;100801.63;5038626;28;69841;-39
2024/01/13 08:43:32;;;;;;;69.55;40.80;;;;;;;31.24;61.52;100807.75;5054898;28;65697;-40
2024/01/13 08:46:03;;;;;;;67.32;40.97;;;;;;;31.10;61.16;100797.03;5073407;28;70459;-39
2024/01/13 08:48:34;;;;;;;69.47;39.37;;;;;;;31.12;61.47;100808.50;5057806;28;66162;-39
2024/01/13 08:51:05;;;;;;;82.40;43.90;;;;;;;31.10;62.82;100810.59;5059290;28;70544;-39
2024/01/13 08:53:37;;;;;;;75.32;43.40;;;;;;;30.94;61.95;100775.94;5060953;28;66090;-39
2024/01/13 08:56:08;;;;;;;72.07;40.95;;;;;;;31.09;61.39;100803.53;5059451;28;69677;-39
2024/01/13 08:58:38;;;;;;;62.75;37.70;;;;;;;31.03;60.06;100808.97;5057924;28;65712;-39
2024/01/13 09:01:09;;;;;;;59.95;35.05;;;;;;;30.92;59.48;100803.28;5057983;28;69915;-40
2024/01/13 09:03:46;;;;;;;55.42;33.03;;;;;;;30.89;59.16;100808.28;5035817;28;66149;-38
2024/01/13 09:06:16;;;;;;;52.05;32.08;;;;;;;30.85;58.40;100816.03;5055119;28;69993;-38
2024/01/13 09:08:47;;;;;;;49.75;29.30;;;;;;;30.79;57.86;100827.72;5053101;28;65573;-40
2024/01/13 09:11:17;;;;;;;52.38;30.83;;;;;;;30.80;57.99;100820.44;5034662;28;70142;-38
2024/01/13 09:14:02;;;;;;;49.63;31.08;;;;;;;30.91;60.09;100822.44;5052011;28;66785;-40
2024/01/13 09:16:33;;;;;;;49.28;30.83;;;;;;;31.03;60.51;100831.47;5059163;28;71207;-37
2024/01/13 09:19:03;;;;;;;49.05;30.13;;;;;;;31.11;61.55;100825.78;5063485;28;66484;-38
2024/01/13 09:21:34;;;;;;;44.17;30.40;;;;;;;31.23;61.80;100815.06;5043879;28;69126;-39
2024/01/13 09:24:11;;;;;;;47.40;30.50;;;;;;;31.36;62.35;100822.22;5047085;28;65501;-39
2024/01/13 09:26:44;;;;;;;46.40;30.30;;;;;;;31.43;62.54;100824.88;5058895;28;70354;-38
2024/01/13 09:29:19;;;;;;;56.22;31.58;;;;;;;31.21;63.04;100791.94;5068860;28;65677;-41
2024/01/13 09:31:50;;;;;;;51.60;31.42;;;;;;;31.55;64.10;100826.59;5052721;28;70460;-41
2024/01/13 09:34:21;;;;;;;39.67;26.63;;;;;;;31.62;63.00;100829.22;5038690;28;65977;-41
2024/01/13 09:36:52;;;;;;;34.60;24.90;;;;;;;31.70;63.56;100838.94;5039106;28;71684;-40
2024/01/13 09:39:23;;;;;;;37.15;26.08;;;;;;;31.77;63.80;100831.56;5027370;28;66332;-41
2024/01/13 09:41:55;;;;;;;41.77;28.03;;;;;;;31.87;62.96;100836.44;5032742;28;70392;-41
2024/01/13 09:44:27;;;;;;;35.45;27.38;;;;;;;31.91;64.36;100843.94;5048238;28;65159;-41
2024/01/13 09:47:00;;;;;;;45.75;28.27;;;;;;;31.73;63.60;100803.22;5049309;28;70801;-45
2024/01/13 09:49:31;;;;;;;45.65;26.70;;;;;;;31.94;64.19;100832.63;5047405;28;66186;-40
2024/01/13 09:52:06;;;;;;;69.15;32.53;;;;;;;32.03;64.90;100846.69;5049456;28;69342;-41
2024/01/13 09:54:37;;;;;;;;;;;;;;;31.92;66.11;100852.91;5047362;28;66983;-50
2024/01/13 09:57:08;;;;;;;95.25;34.50;;;;;;;32.11;64.34;100853.69;5045206;28;69682;-40
2024/01/13 09:59:40;;;;;;;63.05;27.88;;;;;;;32.12;65.24;100858.06;5050798;28;66485;-42
2024/01/13 10:02:13;;;;;;;58.88;28.83;;;;;;;32.19;64.94;100866.94;5055281;28;70321;-40
2024/01/13 10:04:46;;;;;;;51.08;27.77;;;;;;;32.19;66.13;100866.94;5060054;28;66424;-40
2024/01/13 10:07:17;;;;;;;39.38;24.08;;;;;;;32.22;64.93;100875.44;5051514;28;70171;-42
2024/01/13 10:09:57;;;;;;;43.17;22.92;;;;;;;32.21;65.77;100881.13;5046145;28;65717;-40
2024/01/13 10:12:40;;;;;;;37.03;22.27;;;;;;;32.21;65.06;100886.56;5044254;28;70519;-40
2024/01/13 10:15:15;;;;;;;35.30;21.45;;;;;;;32.22;66.10;100896.34;5042300;28;66262;-41
2024/01/13 10:17:46;;;;;;;28.80;18.00;;;;;;;32.25;64.74;100904.03;5038627;28;70175;-42
2024/01/13 10:20:17;;;;;;;;;;;;;;;32.01;66.01;100903.91;5047658;28;66284;-42
2024/01/13 10:22:47;;;;;;;24.40;16.15;;;;;;;32.23;64.37;100917.00;5040116;28;70701;-40
2024/01/13 10:25:18;;;;;;;20.10;14.00;;;;;;;32.26;64.20;100914.66;5040803;28;65636;-42
2024/01/13 10:27:50;;;;;;;22.92;14.40;;;;;;;32.16;64.10;100910.84;5035553;28;69014;-41
2024/01/13 10:30:22;;;;;;;19.15;12.88;;;;;;;32.23;64.38;100927.84;5039657;28;66435;-45
2024/01/13 10:32:53;;;;;;;29.48;14.40;;;;;;;32.23;64.21;100919.69;5049580;28;69592;-41
2024/01/13 10:35:25;;;;;;;27.40;12.65;;;;;;;32.23;64.36;100925.97;5076130;28;65331;-41
2024/01/13 10:37:59;;;;;;;16.95;12.13;;;;;;;32.22;65.04;100926.19;5061969;28;69681;-40
2024/01/13 10:40:29;;;;;;;14.25;11.27;;;;;;;32.24;64.61;100924.91;5059806;28;66132;-40
2024/01/13 10:43:05;;;;;;;21.15;11.15;;;;;;;32.23;64.51;100931.41;5049314;28;69933;-40
2024/01/13 10:45:41;;;;;;;21.88;12.65;;;;;;;32.09;64.90;100912.78;5045941;28;65968;-40
2024/01/13 10:48:36;;;;;;;19.55;11.63;;;;;;;32.19;66.47;100943.75;5034925;28;70236;-40
2024/01/13 10:51:15;;;;;;;17.08;11.63;;;;;;;32.25;65.67;100947.44;5035273;28;65813;-43
2024/01/13 10:54:06;;;;;;;18.67;11.73;;;;;;;31.91;65.47;100887.34;5017985;28;70557;-42
2024/01/13 10:56:39;;;;;;;12.25;10.77;;;;;;;32.07;65.21;100912.19;5052350;28;65886;-41
2024/01/13 10:59:11;;;;;;;11.77;10.60;;;;;;;32.22;65.62;100948.72;5037723;28;69517;-43
2024/01/13 11:01:44;;;;;;;17.52;10.63;;;;;;;32.25;65.62;100942.03;5041752;28;66294;-41
2024/01/13 11:04:17;;;;;;;18.05;11.63;;;;;;;32.20;67.58;100947.31;5040186;28;69311;-44
2024/01/13 11:06:48;;;;;;;18.63;11.65;;;;;;;32.10;68.00;100955.16;5028392;28;66761;-39
2024/01/13 11:09:23;;;;;;;16.57;10.47;;;;;;;31.88;68.60;100952.03;5041387;28;70652;-41
2024/01/13 11:12:10;;;;;;;17.27;9.82;;;;;;;31.84;68.27;100959.78;5035217;28;66422;-42
2024/01/13 11:15:03;;;;;;;10.90;9.20;;;;;;;31.87;67.56;100966.66;5041074;28;70136;-43
2024/01/13 11:17:34;;;;;;;10.30;9.10;;;;;;;31.91;66.45;100962.44;5042333;28;65573;-42
2024/01/13 11:20:11;;;;;;;9.63;8.68;;;;;;;31.91;67.05;100957.88;5041094;28;70347;-42
2024/01/13 11:22:42;;;;;;;9.52;8.48;;;;;;;31.94;66.34;100956.59;5039156;28;66567;-42
2024/01/13 11:25:29;;;;;;;10.52;9.35;;;;;;;31.91;67.53;100963.31;5011399;28;43070;-43
2024/01/13 11:28:02;;;;;;;18.15;9.05;;;;;;;31.97;66.13;100967.81;5024125;28;66611;-44